| time (UTC) | temp F | wind direction | speed knots | gust knots | rain 1hr in | rain 24hr in | rain mn in | humidity % | barometer mb |
| 20260507231429 | 59 | 228 | 5.2 | 8.7 | 0.00 | 0.00 | 0.00 | 42 | 1011.0 |
| 20260507230928 | 59 | 228 | 5.2 | 9.6 | 0.00 | 0.00 | 0.00 | 47 | 1011.0 |
| 20260507230428 | 59 | 230 | 7.8 | 11.3 | 0.00 | 0.00 | 0.00 | 42 | 1011.0 |
| 20260507225929 | 58 | 232 | 8.7 | 15.6 | 0.00 | 0.00 | 0.00 | 41 | 1011.0 |
| 20260507225428 | 59 | 228 | 4.3 | 7.8 | 0.00 | 0.00 | 0.00 | 43 | 1011.0 |
| 20260507224429 | 59 | 227 | 6.1 | 9.6 | 0.00 | 0.00 | 0.00 | 43 | 1011.0 |
| 20260507223929 | 59 | 228 | 6.1 | 10.4 | 0.00 | 0.00 | 0.00 | 41 | 1011.0 |
| 20260507223428 | 60 | 228 | 5.2 | 8.7 | 0.00 | 0.00 | 0.00 | 45 | 1011.0 |
| 20260507222928 | 60 | 227 | 5.2 | 9.6 | 0.00 | 0.00 | 0.00 | 42 | 1011.0 |
| 20260507222431 | 60 | 228 | 5.2 | 10.4 | 0.00 | 0.00 | 0.00 | 40 | 1011.0 |
| 20260507221929 | 60 | 231 | 4.3 | 9.6 | 0.00 | 0.00 | 0.00 | 41 | 1010.0 |
| 20260507221428 | 60 | 229 | 5.2 | 7.8 | 0.00 | 0.00 | 0.00 | 45 | 1010.0 |
| 20260507220928 | 60 | 228 | 7.0 | 10.4 | 0.00 | 0.00 | 0.00 | 43 | 1011.0 |
| 20260507215929 | 60 | 231 | 7.0 | 11.3 | 0.00 | 0.00 | 0.00 | 41 | 1011.0 |
| 20260507215429 | 60 | 230 | 7.8 | 11.3 | 0.00 | 0.00 | 0.00 | 41 | 1011.0 |
| 20260507214928 | 60 | 229 | 5.2 | 7.8 | 0.00 | 0.00 | 0.00 | 42 | 1010.0 |
| 20260507214429 | 60 | 227 | 5.2 | 10.4 | 0.00 | 0.00 | 0.00 | 46 | 1010.0 |
| 20260507213928 | 60 | 227 | 6.1 | 10.4 | 0.00 | 0.00 | 0.00 | 43 | 1011.0 |
| 20260507213433 | 60 | 228 | 6.1 | 10.4 | 0.00 | 0.00 | 0.00 | 45 | 1011.0 |
| 20260507212929 | 60 | 230 | 4.3 | 9.6 | 0.00 | 0.00 | 0.00 | 44 | 1010.0 |
| 20260507212428 | 60 | 232 | 3.5 | 7.0 | 0.00 | 0.00 | 0.00 | 41 | 1010.0 |
| 20260507211928 | 60 | 228 | 4.3 | 8.7 | 0.00 | 0.00 | 0.00 | 44 | 1010.0 |
| 20260507211429 | 59 | 229 | 6.1 | 11.3 | 0.00 | 0.00 | 0.00 | 42 | 1011.0 |
| 20260507210929 | 60 | 230 | 7.8 | 10.4 | 0.00 | 0.00 | 0.00 | 43 | 1010.0 |
| 20260507210428 | 60 | 240 | 5.2 | 7.8 | 0.00 | 0.00 | 0.00 | 42 | 1010.0 |
| 20260507205928 | 59 | 241 | 7.0 | 12.2 | 0.00 | 0.00 | 0.00 | 45 | 1010.0 |
| 20260507205428 | 59 | 236 | 5.2 | 7.8 | 0.00 | 0.00 | 0.00 | 42 | 1010.0 |
| 20260507204929 | 59 | 228 | 2.6 | 7.0 | 0.00 | 0.00 | 0.00 | 46 | 1010.0 |
| 20260507204429 | 59 | 243 | 5.2 | 8.7 | 0.00 | 0.00 | 0.00 | 44 | 1010.0 |
| 20260507203930 | 59 | 243 | 6.1 | 9.6 | 0.00 | 0.00 | 0.00 | 44 | 1010.0 |
| 20260507203429 | 59 | 245 | 3.5 | 8.7 | 0.00 | 0.00 | 0.00 | 44 | 1010.0 |
| 20260507202930 | 59 | 263 | 7.8 | 13.9 | 0.00 | 0.00 | 0.00 | 43 | 1011.0 |
| 20260507202428 | 60 | 260 | 6.1 | 8.7 | 0.00 | 0.00 | 0.00 | 44 | 1011.0 |
| 20260507201930 | 60 | 237 | 6.1 | 12.2 | 0.00 | 0.00 | 0.00 | 42 | 1011.0 |
| 20260507201429 | 61 | 231 | 1.7 | 2.6 | 0.00 | 0.00 | 0.00 | 44 | 1010.0 |
| 20260507200928 | 61 | 337 | 3.5 | 10.4 | 0.00 | 0.00 | 0.00 | 44 | 1010.0 |
| 20260507200429 | 61 | 223 | 4.3 | 6.1 | 0.00 | 0.00 | 0.00 | 44 | 1010.0 |
| 20260507195929 | 61 | 224 | 5.2 | 7.0 | 0.00 | 0.00 | 0.00 | 44 | 1010.0 |
| 20260507195428 | 60 | 223 | 5.2 | 9.6 | 0.00 | 0.00 | 0.00 | 42 | 1010.0 |
| 20260507194930 | 60 | 225 | 1.7 | 2.6 | 0.00 | 0.00 | 0.00 | 46 | 1011.0 |
| 20260507194429 | 60 | 224 | 7.0 | 13.0 | 0.00 | 0.00 | 0.00 | 42 | 1011.0 |
| 20260507193928 | 60 | 223 | 5.2 | 7.0 | 0.00 | 0.00 | 0.00 | 44 | 1011.0 |
| 20260507193430 | 60 | 223 | 2.6 | 5.2 | 0.00 | 0.00 | 0.00 | 47 | 1011.0 |
| 20260507192928 | 61 | 224 | 24.3 | 38.2 | 0.00 | 0.00 | 0.00 | 43 | 1011.0 |
| 20260507192428 | 60 | 227 | 27.8 | 40.8 | 0.00 | 0.00 | 0.00 | 48 | 1011.0 |
| 20260507191929 | 61 | 226 | 28.7 | 41.7 | 0.00 | 0.00 | 0.00 | 47 | 1011.0 |
| 20260507191429 | 60 | 226 | 27.8 | 40.8 | 0.00 | 0.00 | 0.00 | 46 | 1011.0 |
| 20260507190928 | 61 | 238 | 28.7 | 40.8 | 0.00 | 0.00 | 0.00 | 44 | 1011.0 |
| 20260507190429 | 60 | 225 | 10.4 | 23.5 | 0.00 | 0.00 | 0.00 | 45 | 1010.0 |
| 20260507185928 | 60 | 227 | 12.2 | 27.8 | 0.00 | 0.00 | 0.00 | 45 | 1011.0 |
| 20260507185429 | 60 | 224 | 10.4 | 19.1 | 0.00 | 0.00 | 0.00 | 47 | 1011.0 |
| 20260507184929 | 60 | 225 | 8.7 | 21.7 | 0.00 | 0.00 | 0.00 | 46 | 1011.0 |
| 20260507184428 | 60 | 223 | 6.1 | 9.6 | 0.00 | 0.00 | 0.00 | 47 | 1011.0 |
| 20260507183929 | 60 | 224 | 4.3 | 9.6 | 0.00 | 0.00 | 0.00 | 49 | 1011.0 |
| 20260507183431 | 60 | 224 | 3.5 | 5.2 | 0.00 | 0.00 | 0.00 | 47 | 1011.0 |
| 20260507182928 | 59 | 223 | 2.6 | 3.5 | 0.00 | 0.00 | 0.00 | 52 | 1011.0 |
| 20260507182432 | 59 | 224 | 2.6 | 5.2 | 0.00 | 0.00 | 0.00 | 48 | 1011.0 |
| 20260507181931 | 59 | 224 | 3.5 | 10.4 | 0.00 | 0.00 | 0.00 | 50 | 1011.0 |
| 20260507181429 | 59 | 227 | 2.6 | 4.3 | 0.00 | 0.00 | 0.00 | 48 | 1011.0 |
| 20260507180929 | 59 | 223 | 2.6 | 5.2 | 0.00 | 0.00 | 0.00 | 46 | 1011.0 |
| 20260507180430 | 58 | 220 | 6.1 | 29.5 | 0.00 | 0.00 | 0.00 | 49 | 1011.0 |
| 20260507175929 | 58 | 43 | 20.9 | 44.3 | 0.00 | 0.00 | 0.00 | 49 | 1011.0 |
| 20260507175429 | 57 | 40 | 22.6 | 46.1 | 0.00 | 0.00 | 0.00 | 49 | 1011.0 |
| 20260507174929 | 58 | 43 | 30.4 | 42.6 | 0.00 | 0.00 | 0.00 | 47 | 1012.0 |
| 20260507173930 | 58 | 40 | 18.2 | 43.4 | 0.00 | 0.00 | 0.00 | 49 | 1012.0 |
| 20260507173431 | 58 | 37 | 8.7 | 20.0 | 0.00 | 0.00 | 0.00 | 46 | 1012.0 |
| 20260507172932 | 59 | 39 | 12.2 | 28.7 | 0.00 | 0.00 | 0.00 | 47 | 1011.0 |
| 20260507172431 | 59 | 42 | 8.7 | 20.9 | 0.00 | 0.00 | 0.00 | 48 | 1012.0 |
| 20260507171931 | 59 | 40 | 10.4 | 31.3 | 0.00 | 0.00 | 0.00 | 45 | 1012.0 |
| 20260507171432 | 59 | 43 | 5.2 | 9.6 | 0.00 | 0.00 | 0.00 | 49 | 1011.0 |
| 20260507170930 | 59 | 41 | 7.0 | 10.4 | 0.00 | 0.00 | 0.00 | 49 | 1012.0 |
| 20260507170431 | 58 | 20 | 4.3 | 9.6 | 0.00 | 0.00 | 0.00 | 49 | 1011.0 |
| 20260507165931 | 58 | 248 | 5.2 | 11.3 | 0.00 | 0.00 | 0.00 | 47 | 1012.0 |
| 20260507165430 | 58 | 244 | 3.5 | 5.2 | 0.00 | 0.00 | 0.00 | 46 | 1012.0 |
| 20260507164930 | 58 | 255 | 3.5 | 8.7 | 0.00 | 0.00 | 0.00 | 49 | 1011.0 |
| 20260507164431 | 58 | 250 | 9.6 | 14.8 | 0.00 | 0.00 | 0.00 | 46 | 1012.0 |
| 20260507163932 | 57 | 251 | 9.6 | 13.0 | 0.00 | 0.00 | 0.00 | 47 | 1012.0 |
| 20260507163431 | 57 | 235 | 8.7 | 13.9 | 0.00 | 0.00 | 0.00 | 49 | 1012.0 |
| 20260507162931 | 57 | 226 | 7.8 | 18.2 | 0.00 | 0.00 | 0.00 | 50 | 1012.0 |
| 20260507162431 | 57 | 236 | 8.7 | 13.9 | 0.00 | 0.00 | 0.00 | 46 | 1012.0 |
| 20260507161928 | 57 | 237 | 6.1 | 11.3 | 0.00 | 0.00 | 0.00 | 50 | 1012.0 |
| 20260507161429 | 56 | 221 | 1.7 | 5.2 | 0.00 | 0.00 | 0.00 | 48 | 1012.0 |
| 20260507160928 | 56 | 223 | 2.6 | 3.5 | 0.00 | 0.00 | 0.00 | 50 | 1012.0 |
| 20260507160432 | 57 | 223 | 3.5 | 5.2 | 0.00 | 0.00 | 0.00 | 50 | 1013.0 |
| 20260507155930 | 56 | 226 | 4.3 | 8.7 | 0.00 | 0.00 | 0.00 | 51 | 1012.0 |
| 20260507155430 | 56 | 226 | 7.0 | 10.4 | 0.00 | 0.00 | 0.00 | 50 | 1012.0 |
| 20260507154930 | 57 | 227 | 2.6 | 5.2 | 0.00 | 0.00 | 0.00 | 48 | 1013.0 |
| 20260507153931 | 56 | 224 | 2.6 | 5.2 | 0.00 | 0.00 | 0.00 | 51 | 1012.0 |
| 20260507153430 | 56 | 219 | 2.6 | 3.5 | 0.00 | 0.00 | 0.00 | 51 | 1013.0 |
| 20260507152933 | 55 | 223 | 3.5 | 5.2 | 0.00 | 0.00 | 0.00 | 53 | 1012.0 |
| 20260507152429 | 55 | 221 | 2.6 | 3.5 | 0.00 | 0.00 | 0.00 | 50 | 1013.0 |
| 20260507151931 | 55 | 221 | 1.7 | 2.6 | 0.00 | 0.00 | 0.00 | 56 | 1013.0 |
| 20260507151431 | 55 | 220 | 2.6 | 3.5 | 0.00 | 0.00 | 0.00 | 52 | 1013.0 |
| 20260507150930 | 55 | 218 | 2.6 | 3.5 | 0.00 | 0.00 | 0.00 | 55 | 1013.0 |
| 20260507150430 | 54 | 225 | 2.6 | 3.5 | 0.00 | 0.00 | 0.00 | 54 | 1013.0 |
| 20260507145928 | 55 | 223 | 2.6 | 3.5 | 0.00 | 0.00 | 0.00 | 53 | 1013.0 |
| 20260507145428 | 55 | 222 | 2.6 | 3.5 | 0.00 | 0.00 | 0.00 | 52 | 1013.0 |
| 20260507144929 | 55 | 220 | 1.7 | 2.6 | 0.00 | 0.00 | 0.00 | 53 | 1013.0 |
| 20260507144429 | 55 | 225 | 2.6 | 3.5 | 0.00 | 0.00 | 0.00 | 53 | 1013.0 |
| 20260507143929 | 55 | 218 | 2.6 | 3.5 | 0.00 | 0.00 | 0.00 | 55 | 1013.0 |
| 20260507143431 | 54 | 199 | 5.2 | 7.0 | 0.00 | 0.00 | 0.00 | 55 | 1013.0 |
| 20260507142933 | 54 | 223 | 3.5 | 4.3 | 0.00 | 0.00 | 0.00 | 58 | 1013.0 |
| 20260507142431 | 54 | 217 | 1.7 | 3.5 | 0.00 | 0.00 | 0.00 | 56 | 1013.0 |
| 20260507141931 | 54 | 220 | 2.6 | 4.3 | 0.00 | 0.00 | 0.00 | 58 | 1013.0 |
| 20260507141431 | 54 | 224 | 3.5 | 5.2 | 0.00 | 0.00 | 0.00 | 57 | 1014.0 |
| 20260507140933 | 54 | 226 | 3.5 | 7.0 | 0.00 | 0.00 | 0.00 | 58 | 1014.0 |
| 20260507140428 | 53 | 309 | 3.5 | 6.1 | 0.00 | 0.00 | 0.00 | 60 | 1014.0 |
| 20260507135928 | 53 | 287 | 3.5 | 5.2 | 0.00 | 0.00 | 0.00 | 62 | 1014.0 |
| 20260507135429 | 53 | 330 | 2.6 | 3.5 | 0.00 | 0.00 | 0.00 | 60 | 1014.0 |
| 20260507134931 | 53 | 324 | 2.6 | 4.3 | 0.00 | 0.00 | 0.00 | 60 | 1014.0 |
| 20260507134429 | 53 | 242 | 2.6 | 5.2 | 0.00 | 0.00 | 0.00 | 60 | 1014.0 |
| 20260507133932 | 53 | 213 | 2.6 | 4.3 | 0.00 | 0.00 | 0.00 | 61 | 1014.0 |
| 20260507133429 | 53 | 204 | 1.7 | 3.5 | 0.00 | 0.00 | 0.00 | 58 | 1014.0 |
| 20260507132932 | 52 | 185 | 1.7 | 2.6 | 0.00 | 0.00 | 0.00 | 61 | 1014.0 |
| 20260507132430 | 52 | 248 | 2.6 | 5.2 | 0.00 | 0.00 | 0.00 | 63 | 1015.0 |
| 20260507131929 | 52 | 207 | 1.7 | 2.6 | 0.00 | 0.00 | 0.00 | 62 | 1014.0 |
| 20260507131431 | 51 | 132 | 0.9 | 1.7 | 0.00 | 0.00 | 0.00 | 68 | 1014.0 |
| 20260507130929 | 52 | 181 | 2.6 | 4.3 | 0.00 | 0.00 | 0.00 | 66 | 1014.0 |
| 20260507130429 | 52 | 221 | 2.6 | 3.5 | 0.00 | 0.00 | 0.00 | 67 | 1014.0 |
| 20260507125928 | 52 | 229 | 0.9 | 1.7 | 0.00 | 0.00 | 0.00 | 69 | 1014.0 |
| 20260507125430 | 52 | 176 | 0.9 | 2.6 | 0.00 | 0.00 | 0.00 | 70 | 1014.0 |
| 20260507124930 | 52 | 176 | 0.9 | 1.7 | 0.00 | 0.00 | 0.00 | 68 | 1014.0 |
| 20260507124430 | 52 | 188 | 1.7 | 2.6 | 0.00 | 0.00 | 0.00 | 69 | 1014.0 |
| 20260507123929 | 52 | 194 | 1.7 | 3.5 | 0.00 | 0.00 | 0.00 | 70 | 1014.0 |
| 20260507123430 | 51 | 267 | 0.9 | 1.7 | 0.00 | 0.00 | 0.00 | 74 | 1014.0 |
| 20260507122929 | 52 | 161 | 1.7 | 2.6 | 0.00 | 0.00 | 0.00 | 72 | 1014.0 |
| 20260507122430 | 52 | 126 | 0.9 | 1.7 | 0.00 | 0.00 | 0.00 | 73 | 1014.0 |
| 20260507121931 | 51 | 197 | 0.9 | 1.7 | 0.00 | 0.00 | 0.00 | 76 | 1014.0 |
| 20260507121428 | 50 | 123 | 0.0 | 0.9 | 0.00 | 0.00 | 0.00 | 79 | 1014.0 |
| 20260507120930 | 49 | 212 | 0.9 | 1.7 | 0.00 | 0.00 | 0.00 | 81 | 1014.0 |
| 20260507120432 | 48 | 242 | 0.9 | 0.9 | 0.00 | 0.00 | 0.00 | 84 | 1014.0 |
| 20260507115929 | 47 | 212 | 0.0 | 0.9 | 0.00 | 0.00 | 0.00 | 86 | 1014.0 |
| 20260507115428 | 46 | 63 | 0.9 | 1.7 | 0.00 | 0.00 | 0.00 | 87 | 1014.0 |
| 20260507114930 | 46 | 80 | 0.9 | 0.9 | 0.00 | 0.00 | 0.00 | 86 | 1015.0 |
| 20260507114429 | 45 | 73 | 0.0 | 0.0 | 0.00 | 0.00 | 0.00 | 88 | 1015.0 |
| 20260507113931 | 45 | 81 | 0.0 | 0.0 | 0.00 | 0.00 | 0.00 | 91 | 1014.0 |
| 20260507113429 | 44 | 310 | 0.0 | 0.9 | 0.00 | 0.00 | 0.00 | 95 | 1014.0 |
| 20260507112931 | 44 | 155 | 0.9 | 0.9 | 0.00 | 0.00 | 0.00 | 97 | 1014.0 |
| 20260507112430 | 43 | 194 | 0.9 | 1.7 | 0.00 | 0.00 | 0.00 | 98 | 1013.0 |
| 20260507111930 | 43 | 0 | 0.0 | 0.0 | 0.00 | 0.00 | 0.00 | 98 | 1013.0 |
| 20260507111430 | 42 | 250 | 0.0 | 0.9 | 0.00 | 0.00 | 0.00 | 98 | 1013.0 |
| 20260507110933 | 42 | 206 | 0.9 | 0.9 | 0.00 | 0.00 | 0.00 | 98 | 1013.0 |
| 20260507110435 | 40 | 306 | 0.9 | 0.9 | 0.00 | 0.00 | 0.00 | 98 | 1013.0 |
| 20260507105931 | 39 | 263 | 0.0 | 0.9 | 0.00 | 0.00 | 0.00 | 98 | 1013.0 |
| 20260507105431 | 38 | 0 | 0.0 | 0.0 | 0.00 | 0.00 | 0.00 | 98 | 1013.0 |
| 20260507104930 | 38 | 165 | 0.0 | 0.0 | 0.00 | 0.00 | 0.00 | 98 | 1014.0 |
| 20260507104434 | 37 | 0 | 0.0 | 0.0 | 0.00 | 0.00 | 0.00 | 98 | 1014.0 |
| 20260507103929 | 37 | 119 | 0.0 | 0.0 | 0.00 | 0.00 | 0.00 | 98 | 1014.0 |
| 20260507103428 | 37 | 0 | 0.0 | 0.0 | 0.00 | 0.00 | 0.00 | 98 | 1014.0 |
| 20260507102931 | 36 | 212 | 0.0 | 0.9 | 0.00 | 0.00 | 0.00 | 98 | 1014.0 |
| 20260507102429 | 36 | 0 | 0.0 | 0.0 | 0.00 | 0.00 | 0.00 | 98 | 1014.0 |
| 20260507101929 | 37 | 210 | 0.9 | 0.9 | 0.00 | 0.00 | 0.00 | 98 | 1014.0 |
| 20260507101429 | 37 | 217 | 0.0 | 0.0 | 0.00 | 0.00 | 0.00 | 98 | 1014.0 |
| 20260507100929 | 37 | 219 | 0.9 | 0.9 | 0.00 | 0.00 | 0.00 | 98 | 1014.0 |
| 20260507100429 | 37 | 220 | 0.9 | 0.9 | 0.00 | 0.00 | 0.00 | 98 | 1014.0 |
| 20260507095928 | 37 | 250 | 0.0 | 0.9 | 0.00 | 0.00 | 0.00 | 97 | 1014.0 |
| 20260507095428 | 37 | 264 | 0.0 | 0.0 | 0.00 | 0.00 | 0.00 | 97 | 1014.0 |
| 20260507094928 | 37 | 60 | 0.0 | 0.0 | 0.00 | 0.00 | 0.00 | 97 | 1014.0 |
| 20260507094428 | 37 | 228 | 1.7 | 1.7 | 0.00 | 0.00 | 0.00 | 97 | 1014.0 |
| 20260507093929 | 38 | 210 | 1.7 | 1.7 | 0.00 | 0.00 | 0.00 | 97 | 1014.0 |
| 20260507093429 | 38 | 182 | 0.9 | 0.9 | 0.00 | 0.00 | 0.00 | 97 | 1014.0 |
| 20260507092928 | 38 | 202 | 0.9 | 0.9 | 0.00 | 0.00 | 0.00 | 97 | 1014.0 |
| 20260507092429 | 38 | 238 | 0.9 | 0.9 | 0.00 | 0.00 | 0.00 | 97 | 1014.0 |
| 20260507091928 | 38 | 209 | 0.0 | 0.0 | 0.00 | 0.00 | 0.00 | 97 | 1014.0 |
| 20260507091428 | 38 | 201 | 0.9 | 1.7 | 0.00 | 0.00 | 0.00 | 97 | 1014.0 |
| 20260507090929 | 38 | 0 | 0.0 | 0.0 | 0.00 | 0.00 | 0.00 | 97 | 1014.0 |
| 20260507090428 | 39 | 218 | 0.9 | 0.9 | 0.00 | 0.00 | 0.00 | 97 | 1014.0 |
| 20260507085928 | 39 | 202 | 0.9 | 0.9 | 0.00 | 0.00 | 0.00 | 96 | 1014.0 |
| 20260507085428 | 39 | 235 | 0.0 | 0.9 | 0.00 | 0.00 | 0.00 | 96 | 1014.0 |
| 20260507084929 | 39 | 203 | 0.0 | 0.9 | 0.00 | 0.00 | 0.00 | 96 | 1014.0 |
| 20260507084429 | 40 | 221 | 0.9 | 0.9 | 0.00 | 0.00 | 0.00 | 96 | 1014.0 |
| 20260507083928 | 40 | 219 | 0.9 | 0.9 | 0.00 | 0.00 | 0.00 | 96 | 1014.0 |
| 20260507082949 | 41 | 227 | 0.0 | 0.9 | 0.00 | 0.00 | 0.00 | 95 | 1014.0 |
| 20260507082431 | 41 | 210 | 0.9 | 1.7 | 0.00 | 0.00 | 0.00 | 95 | 1014.0 |
| 20260507081931 | 41 | 210 | 0.9 | 0.9 | 0.00 | 0.00 | 0.00 | 95 | 1014.0 |
| 20260507081428 | 42 | 211 | 0.9 | 1.7 | 0.00 | 0.00 | 0.00 | 95 | 1014.0 |
| 20260507080928 | 42 | 221 | 0.9 | 0.9 | 0.00 | 0.00 | 0.00 | 95 | 1014.0 |
| 20260507080429 | 42 | 251 | 0.0 | 0.9 | 0.00 | 0.00 | 0.00 | 94 | 1014.0 |
| 20260507075930 | 43 | 190 | 0.0 | 0.9 | 0.00 | 0.00 | 0.00 | 94 | 1014.0 |
| 20260507075428 | 43 | 207 | 0.9 | 0.9 | 0.00 | 0.00 | 0.00 | 94 | 1014.0 |
| 20260507074929 | 43 | 206 | 0.0 | 0.9 | 0.00 | 0.00 | 0.00 | 94 | 1014.0 |
| 20260507074431 | 43 | 219 | 0.0 | 0.9 | 0.00 | 0.00 | 0.00 | 94 | 1014.0 |
| 20260507073928 | 43 | 229 | 0.9 | 0.9 | 0.00 | 0.00 | 0.00 | 93 | 1014.0 |
| 20260507073428 | 43 | 208 | 0.9 | 0.9 | 0.00 | 0.00 | 0.00 | 93 | 1014.0 |
| 20260507072930 | 43 | 218 | 0.0 | 0.9 | 0.00 | 0.00 | 0.00 | 92 | 1014.0 |
| 20260507072428 | 44 | 207 | 0.0 | 0.9 | 0.00 | 0.00 | 0.00 | 92 | 1014.0 |
| 20260507071931 | 44 | 219 | 0.0 | 0.9 | 0.00 | 0.00 | 0.00 | 91 | 1014.0 |
| 20260507071428 | 45 | 191 | 0.0 | 0.9 | 0.00 | 0.00 | 0.00 | 91 | 1014.0 |
| 20260507070928 | 45 | 208 | 0.9 | 0.9 | 0.00 | 0.00 | 0.00 | 90 | 1014.0 |
| 20260507070432 | 46 | 208 | 0.0 | 0.9 | 0.00 | 0.00 | 0.00 | 89 | 1014.0 |
| 20260507065931 | 46 | 213 | 0.0 | 0.9 | 0.00 | 0.00 | 0.00 | 89 | 1014.0 |
| 20260507065431 | 46 | 206 | 0.9 | 0.9 | 0.00 | 0.00 | 0.00 | 88 | 1014.0 |
| 20260507064930 | 46 | 220 | 0.9 | 1.7 | 0.00 | 0.00 | 0.00 | 86 | 1014.0 |
| 20260507064431 | 46 | 246 | 0.9 | 0.9 | 0.00 | 0.00 | 0.00 | 86 | 1014.0 |
| 20260507063931 | 46 | 213 | 0.9 | 0.9 | 0.00 | 0.00 | 0.00 | 86 | 1014.0 |
| 20260507063430 | 47 | 230 | 0.9 | 0.9 | 0.00 | 0.00 | 0.00 | 87 | 1014.0 |
| 20260507062928 | 47 | 218 | 0.9 | 1.7 | 0.00 | 0.00 | 0.00 | 87 | 1014.0 |
| 20260507062429 | 47 | 223 | 0.9 | 0.9 | 0.00 | 0.00 | 0.00 | 86 | 1014.0 |
| 20260507061928 | 47 | 221 | 0.9 | 1.7 | 0.00 | 0.00 | 0.00 | 87 | 1014.0 |
| 20260507061429 | 47 | 217 | 0.9 | 0.9 | 0.00 | 0.00 | 0.00 | 87 | 1014.0 |
| 20260507060928 | 47 | 245 | 0.9 | 1.7 | 0.00 | 0.00 | 0.00 | 89 | 1014.0 |
| 20260507060429 | 47 | 229 | 0.9 | 0.9 | 0.00 | 0.00 | 0.00 | 89 | 1014.0 |
| 20260507055931 | 47 | 226 | 0.0 | 0.9 | 0.00 | 0.00 | 0.00 | 89 | 1014.0 |
| 20260507055431 | 47 | 219 | 0.9 | 0.9 | 0.00 | 0.00 | 0.00 | 89 | 1014.0 |
| 20260507054928 | 47 | 226 | 0.9 | 1.7 | 0.00 | 0.00 | 0.00 | 89 | 1014.0 |
| 20260507054430 | 47 | 238 | 0.9 | 0.9 | 0.00 | 0.00 | 0.00 | 89 | 1014.0 |
| 20260507053929 | 48 | 220 | 0.9 | 1.7 | 0.00 | 0.00 | 0.00 | 87 | 1014.0 |
| 20260507053428 | 48 | 223 | 0.9 | 1.7 | 0.00 | 0.00 | 0.00 | 85 | 1014.0 |
| 20260507052929 | 48 | 225 | 0.9 | 0.9 | 0.00 | 0.00 | 0.00 | 83 | 1014.0 |
| 20260507052428 | 48 | 260 | 0.9 | 0.9 | 0.00 | 0.00 | 0.00 | 81 | 1015.0 |
| 20260507051928 | 48 | 214 | 0.9 | 0.9 | 0.00 | 0.00 | 0.00 | 80 | 1015.0 |
| 20260507051428 | 49 | 221 | 0.9 | 0.9 | 0.00 | 0.00 | 0.00 | 80 | 1015.0 |
| 20260507050934 | 49 | 213 | 0.9 | 0.9 | 0.00 | 0.00 | 0.00 | 77 | 1015.0 |
| 20260507050429 | 49 | 215 | 0.9 | 0.9 | 0.00 | 0.00 | 0.00 | 74 | 1015.0 |
| 20260507045929 | 49 | 215 | 0.9 | 0.9 | 0.00 | 0.00 | 0.00 | 74 | 1015.0 |
| 20260507045428 | 50 | 207 | 0.9 | 0.9 | 0.00 | 0.00 | 0.00 | 73 | 1015.0 |
| 20260507044929 | 50 | 300 | 0.0 | 0.9 | 0.00 | 0.00 | 0.00 | 70 | 1015.0 |
| 20260507044429 | 50 | 63 | 0.0 | 0.9 | 0.00 | 0.00 | 0.00 | 70 | 1015.0 |
| 20260507043928 | 50 | 0 | 0.0 | 1.7 | 0.00 | 0.00 | 0.00 | 73 | 1015.0 |
| 20260507043428 | 50 | 116 | 0.9 | 1.7 | 0.00 | 0.00 | 0.00 | 70 | 1015.0 |
| 20260507042928 | 49 | 315 | 1.7 | 2.6 | 0.00 | 0.00 | 0.00 | 71 | 1015.0 |
| 20260507042430 | 49 | 210 | 0.0 | 0.9 | 0.00 | 0.00 | 0.00 | 74 | 1015.0 |
| 20260507041929 | 49 | 262 | 0.0 | 0.9 | 0.00 | 0.00 | 0.00 | 80 | 1014.0 |
| 20260507041429 | 49 | 211 | 0.9 | 0.9 | 0.00 | 0.00 | 0.00 | 81 | 1014.0 |
| 20260507040928 | 50 | 240 | 0.9 | 0.9 | 0.00 | 0.00 | 0.00 | 81 | 1014.0 |
| 20260507040429 | 50 | 264 | 0.0 | 0.9 | 0.00 | 0.00 | 0.00 | 81 | 1014.0 |
| 20260507035931 | 50 | 231 | 0.9 | 1.7 | 0.00 | 0.00 | 0.46 | 77 | 1014.0 |
| 20260507035430 | 50 | 225 | 1.7 | 2.6 | 0.00 | 0.00 | 0.46 | 75 | 1015.0 |
| 20260507034928 | 49 | 202 | 0.0 | 0.9 | 0.00 | 0.00 | 0.46 | 78 | 1014.0 |
| 20260507034428 | 49 | 135 | 0.0 | 0.9 | 0.00 | 0.00 | 0.46 | 79 | 1014.0 |
| 20260507033930 | 49 | 22 | 0.0 | 0.9 | 0.00 | 0.00 | 0.46 | 80 | 1015.0 |
| 20260507033428 | 49 | 314 | 0.9 | 1.7 | 0.00 | 0.00 | 0.46 | 87 | 1014.0 |
| 20260507032929 | 49 | 235 | 0.0 | 0.9 | 0.00 | 0.00 | 0.46 | 89 | 1014.0 |
| 20260507032428 | 49 | 212 | 0.0 | 0.9 | 0.00 | 0.00 | 0.46 | 89 | 1014.0 |
| 20260507031928 | 49 | 210 | 1.7 | 1.7 | 0.00 | 0.00 | 0.46 | 89 | 1014.0 |
| 20260507031431 | 49 | 224 | 0.9 | 0.9 | 0.00 | 0.00 | 0.46 | 87 | 1014.0 |
| 20260507030930 | 50 | 226 | 0.9 | 0.9 | 0.00 | 0.00 | 0.46 | 86 | 1014.0 |
| 20260507030430 | 50 | 226 | 0.9 | 0.9 | 0.00 | 0.00 | 0.46 | 85 | 1014.0 |
| 20260507025928 | 50 | 226 | 0.9 | 0.9 | 0.00 | 0.00 | 0.46 | 85 | 1014.0 |
| 20260507025430 | 50 | 225 | 0.9 | 0.9 | 0.00 | 0.00 | 0.46 | 83 | 1014.0 |
| 20260507024929 | 50 | 226 | 0.9 | 0.9 | 0.00 | 0.00 | 0.46 | 82 | 1014.0 |
| 20260507024430 | 51 | 225 | 0.9 | 0.9 | 0.00 | 0.00 | 0.46 | 83 | 1014.0 |
| 20260507023930 | 51 | 226 | 0.9 | 0.9 | 0.00 | 0.00 | 0.46 | 83 | 1014.0 |
| 20260507023430 | 51 | 226 | 0.9 | 0.9 | 0.00 | 0.00 | 0.46 | 81 | 1014.0 |
| 20260507022928 | 51 | 275 | 2.6 | 3.5 | 0.00 | 0.00 | 0.46 | 81 | 1014.0 |
| 20260507022431 | 52 | 295 | 1.7 | 3.5 | 0.00 | 0.00 | 0.46 | 81 | 1014.0 |
| 20260507021930 | 52 | 338 | 2.6 | 3.5 | 0.00 | 0.00 | 0.46 | 76 | 1014.0 |
| 20260507021428 | 52 | 318 | 1.7 | 3.5 | 0.00 | 0.00 | 0.46 | 82 | 1014.0 |
| 20260507020930 | 52 | 333 | 2.6 | 2.6 | 0.00 | 0.00 | 0.46 | 76 | 1014.0 |
| 20260507020431 | 52 | 321 | 2.6 | 2.6 | 0.00 | 0.00 | 0.46 | 76 | 1014.0 |
| 20260507015930 | 52 | 332 | 1.7 | 3.5 | 0.00 | 0.00 | 0.46 | 76 | 1014.0 |
| 20260507015430 | 52 | 328 | 2.6 | 2.6 | 0.00 | 0.00 | 0.46 | 77 | 1014.0 |
| 20260507014928 | 52 | 340 | 2.6 | 2.6 | 0.00 | 0.00 | 0.46 | 77 | 1014.0 |
| 20260507014431 | 52 | 349 | 1.7 | 2.6 | 0.00 | 0.00 | 0.46 | 79 | 1013.0 |
| 20260507013931 | 52 | 332 | 3.5 | 3.5 | 0.00 | 0.00 | 0.46 | 80 | 1013.0 |
| 20260507013430 | 51 | 324 | 1.7 | 3.5 | 0.00 | 0.00 | 0.46 | 86 | 1013.0 |
| 20260507012930 | 51 | 302 | 3.5 | 7.8 | 0.00 | 0.00 | 0.46 | 93 | 1013.0 |
| 20260507012430 | 51 | 233 | 1.7 | 3.5 | 0.00 | 0.00 | 0.46 | 94 | 1012.0 |
| 20260507011928 | 51 | 216 | 0.9 | 0.9 | 0.00 | 0.00 | 0.46 | 94 | 1012.0 |
| 20260507011429 | 51 | 216 | 1.7 | 1.7 | 0.00 | 0.00 | 0.46 | 93 | 1012.0 |
| 20260507010931 | 51 | 210 | 0.9 | 1.7 | 0.00 | 0.00 | 0.46 | 93 | 1012.0 |
| 20260507010428 | 51 | 224 | 0.9 | 1.7 | 0.00 | 0.00 | 0.46 | 92 | 1012.0 |
| 20260507005929 | 51 | 208 | 0.9 | 1.7 | 0.00 | 0.00 | 0.46 | 92 | 1012.0 |
| 20260507005429 | 51 | 215 | 1.7 | 1.7 | 0.00 | 0.00 | 0.46 | 91 | 1013.0 |
| 20260507004928 | 51 | 183 | 0.9 | 0.9 | 0.00 | 0.00 | 0.46 | 91 | 1013.0 |
| 20260507004429 | 52 | 208 | 1.7 | 1.7 | 0.00 | 0.00 | 0.46 | 90 | 1013.0 |
| 20260507003929 | 52 | 268 | 0.9 | 0.9 | 0.00 | 0.00 | 0.46 | 90 | 1013.0 |
| 20260507003430 | 52 | 214 | 1.7 | 1.7 | 0.00 | 0.00 | 0.46 | 89 | 1013.0 |
| 20260507002930 | 52 | 217 | 0.9 | 1.7 | 0.00 | 0.00 | 0.46 | 89 | 1013.0 |
| 20260507002429 | 52 | 226 | 1.7 | 2.6 | 0.00 | 0.00 | 0.46 | 87 | 1013.0 |
| 20260507001930 | 52 | 234 | 0.9 | 1.7 | 0.00 | 0.00 | 0.46 | 88 | 1013.0 |
| 20260507001428 | 53 | 217 | 0.9 | 1.7 | 0.00 | 0.00 | 0.46 | 89 | 1013.0 |
| 20260507000930 | 53 | 214 | 1.7 | 1.7 | 0.00 | 0.00 | 0.46 | 89 | 1013.0 |
| 20260507000430 | 53 | 221 | 1.7 | 5.2 | 0.00 | 0.00 | 0.46 | 90 | 1013.0 |
| 20260506235929 | 53 | 216 | 1.7 | 1.7 | 0.00 | 0.00 | 0.46 | 89 | 1013.0 |
| 20260506235430 | 53 | 224 | 0.9 | 1.7 | 0.00 | 0.00 | 0.46 | 88 | 1013.0 |
| 20260506234933 | 53 | 222 | 2.6 | 4.3 | 0.00 | 0.00 | 0.46 | 86 | 1013.0 |
| 20260506234430 | 53 | 226 | 0.9 | 0.9 | 0.00 | 0.00 | 0.46 | 86 | 1013.0 |
| 20260506233928 | 53 | 221 | 1.7 | 1.7 | 0.00 | 0.00 | 0.46 | 87 | 1013.0 |
| 20260506233436 | 54 | 227 | 3.5 | 10.4 | 0.00 | 0.00 | 0.46 | 86 | 1013.0 |
| 20260506232930 | 54 | 220 | 1.7 | 2.6 | 0.00 | 0.00 | 0.46 | 84 | 1013.0 |
| 20260506232431 | 54 | 236 | 0.9 | 0.9 | 0.00 | 0.00 | 0.46 | 84 | 1013.0 |
| 20260506231930 | 54 | 220 | 1.7 | 1.7 | 0.00 | 0.00 | 0.46 | 85 | 1013.0 |